sensor_id;sensor_type;location;lat;lon;timestamp;P1;durP1;ratioP1;P2;durP2;ratioP2
52029;SDS011;38043;53.224;6.580;2023-07-13T00:00:37;19.50;;;3.10;;
52029;SDS011;38043;53.224;6.580;2023-07-13T00:03:03;13.70;;;3.40;;
52029;SDS011;38043;53.224;6.580;2023-07-13T00:05:29;12.57;;;2.90;;
52029;SDS011;38043;53.224;6.580;2023-07-13T00:07:56;9.27;;;2.70;;
52029;SDS011;38043;53.224;6.580;2023-07-13T00:10:21;12.63;;;3.03;;
52029;SDS011;38043;53.224;6.580;2023-07-13T00:12:48;16.13;;;3.03;;
52029;SDS011;38043;53.224;6.580;2023-07-13T00:15:19;10.70;;;2.30;;
52029;SDS011;38043;53.224;6.580;2023-07-13T00:17:51;10.60;;;3.28;;
52029;SDS011;38043;53.224;6.580;2023-07-13T00:20:20;12.45;;;3.15;;
52029;SDS011;38043;53.224;6.580;2023-07-13T00:22:48;12.38;;;3.35;;
52029;SDS011;38043;53.224;6.580;2023-07-13T00:25:14;11.93;;;3.00;;
52029;SDS011;38043;53.224;6.580;2023-07-13T00:27:41;9.73;;;3.10;;
52029;SDS011;38043;53.224;6.580;2023-07-13T00:30:07;14.95;;;3.05;;
52029;SDS011;38043;53.224;6.580;2023-07-13T00:32:34;9.82;;;3.00;;
52029;SDS011;38043;53.224;6.580;2023-07-13T00:35:00;14.10;;;3.13;;
52029;SDS011;38043;53.224;6.580;2023-07-13T00:37:28;14.57;;;2.63;;
52029;SDS011;38043;53.224;6.580;2023-07-13T00:39:54;12.13;;;3.13;;
52029;SDS011;38043;53.224;6.580;2023-07-13T00:42:20;12.35;;;2.60;;
52029;SDS011;38043;53.224;6.580;2023-07-13T00:47:46;19.50;;;3.20;;
52029;SDS011;38043;53.224;6.580;2023-07-13T00:50:13;12.20;;;3.38;;
52029;SDS011;38043;53.224;6.580;2023-07-13T00:52:43;12.73;;;3.03;;
52029;SDS011;38043;53.224;6.580;2023-07-13T00:55:13;15.57;;;3.25;;
52029;SDS011;38043;53.224;6.580;2023-07-13T00:57:40;15.07;;;3.40;;
52029;SDS011;38043;53.224;6.580;2023-07-13T01:00:07;12.40;;;3.40;;
52029;SDS011;38043;53.224;6.580;2023-07-13T01:02:34;11.32;;;3.10;;
52029;SDS011;38043;53.224;6.580;2023-07-13T01:05:12;16.35;;;3.88;;
52029;SDS011;38043;53.224;6.580;2023-07-13T01:07:40;12.35;;;3.08;;
52029;SDS011;38043;53.224;6.580;2023-07-13T01:10:07;12.82;;;2.72;;
52029;SDS011;38043;53.224;6.580;2023-07-13T01:12:33;13.23;;;3.20;;
52029;SDS011;38043;53.224;6.580;2023-07-13T01:15:00;19.00;;;4.05;;
52029;SDS011;38043;53.224;6.580;2023-07-13T01:17:28;10.27;;;3.50;;
52029;SDS011;38043;53.224;6.580;2023-07-13T01:19:54;13.73;;;2.85;;
52029;SDS011;38043;53.224;6.580;2023-07-13T01:22:20;11.07;;;2.90;;
52029;SDS011;38043;53.224;6.580;2023-07-13T01:24:51;12.20;;;3.10;;
52029;SDS011;38043;53.224;6.580;2023-07-13T01:27:22;13.52;;;3.30;;
52029;SDS011;38043;53.224;6.580;2023-07-13T01:29:50;13.93;;;3.40;;
52029;SDS011;38043;53.224;6.580;2023-07-13T01:32:22;12.23;;;3.47;;
52029;SDS011;38043;53.224;6.580;2023-07-13T01:34:52;11.48;;;3.05;;
52029;SDS011;38043;53.224;6.580;2023-07-13T01:37:22;11.95;;;3.03;;
52029;SDS011;38043;53.224;6.580;2023-07-13T01:39:50;16.45;;;4.00;;
52029;SDS011;38043;53.224;6.580;2023-07-13T01:42:15;13.25;;;3.17;;
52029;SDS011;38043;53.224;6.580;2023-07-13T01:44:41;14.90;;;3.55;;
52029;SDS011;38043;53.224;6.580;2023-07-13T01:47:06;16.13;;;3.40;;
52029;SDS011;38043;53.224;6.580;2023-07-13T01:49:32;18.42;;;3.75;;
52029;SDS011;38043;53.224;6.580;2023-07-13T01:51:58;12.90;;;3.08;;
52029;SDS011;38043;53.224;6.580;2023-07-13T01:54:24;13.65;;;3.10;;
52029;SDS011;38043;53.224;6.580;2023-07-13T01:56:49;16.27;;;3.25;;
52029;SDS011;38043;53.224;6.580;2023-07-13T01:59:15;12.68;;;3.33;;
52029;SDS011;38043;53.224;6.580;2023-07-13T02:01:41;13.68;;;3.00;;
52029;SDS011;38043;53.224;6.580;2023-07-13T02:04:07;10.65;;;3.17;;
52029;SDS011;38043;53.224;6.580;2023-07-13T02:06:32;9.85;;;2.80;;
52029;SDS011;38043;53.224;6.580;2023-07-13T02:08:58;12.50;;;3.03;;
52029;SDS011;38043;53.224;6.580;2023-07-13T02:11:24;16.17;;;3.85;;
52029;SDS011;38043;53.224;6.580;2023-07-13T02:13:50;15.57;;;3.85;;
52029;SDS011;38043;53.224;6.580;2023-07-13T02:16:17;15.32;;;3.13;;
52029;SDS011;38043;53.224;6.580;2023-07-13T02:18:42;12.20;;;3.13;;
52029;SDS011;38043;53.224;6.580;2023-07-13T02:21:08;13.05;;;3.20;;
52029;SDS011;38043;53.224;6.580;2023-07-13T02:23:35;12.45;;;2.88;;
52029;SDS011;38043;53.224;6.580;2023-07-13T02:26:01;13.23;;;3.92;;
52029;SDS011;38043;53.224;6.580;2023-07-13T02:28:28;10.00;;;2.92;;
52029;SDS011;38043;53.224;6.580;2023-07-13T02:30:54;8.95;;;2.60;;
52029;SDS011;38043;53.224;6.580;2023-07-13T02:33:20;10.90;;;2.65;;
52029;SDS011;38043;53.224;6.580;2023-07-13T02:35:45;10.00;;;2.92;;
52029;SDS011;38043;53.224;6.580;2023-07-13T02:38:11;9.82;;;3.45;;
52029;SDS011;38043;53.224;6.580;2023-07-13T02:40:37;13.57;;;3.08;;
52029;SDS011;38043;53.224;6.580;2023-07-13T02:43:03;14.00;;;3.25;;
52029;SDS011;38043;53.224;6.580;2023-07-13T02:45:29;11.43;;;3.08;;
52029;SDS011;38043;53.224;6.580;2023-07-13T02:47:55;9.57;;;2.67;;
52029;SDS011;38043;53.224;6.580;2023-07-13T02:50:20;9.00;;;3.00;;
52029;SDS011;38043;53.224;6.580;2023-07-13T02:52:46;11.77;;;3.65;;
52029;SDS011;38043;53.224;6.580;2023-07-13T02:55:12;11.52;;;3.10;;
52029;SDS011;38043;53.224;6.580;2023-07-13T02:57:38;12.30;;;3.13;;
52029;SDS011;38043;53.224;6.580;2023-07-13T03:00:04;15.77;;;3.80;;
52029;SDS011;38043;53.224;6.580;2023-07-13T03:02:31;13.98;;;4.05;;
52029;SDS011;38043;53.224;6.580;2023-07-13T03:04:57;19.65;;;4.25;;
52029;SDS011;38043;53.224;6.580;2023-07-13T03:07:23;14.60;;;3.53;;
52029;SDS011;38043;53.224;6.580;2023-07-13T03:09:59;19.90;;;4.20;;
52029;SDS011;38043;53.224;6.580;2023-07-13T03:12:25;13.93;;;3.55;;
52029;SDS011;38043;53.224;6.580;2023-07-13T03:14:51;12.48;;;3.60;;
52029;SDS011;38043;53.224;6.580;2023-07-13T03:17:17;12.63;;;3.92;;
52029;SDS011;38043;53.224;6.580;2023-07-13T03:19:43;15.52;;;3.85;;
52029;SDS011;38043;53.224;6.580;2023-07-13T03:22:09;15.48;;;4.32;;
52029;SDS011;38043;53.224;6.580;2023-07-13T03:24:35;15.82;;;4.50;;
52029;SDS011;38043;53.224;6.580;2023-07-13T03:27:03;15.68;;;4.70;;
52029;SDS011;38043;53.224;6.580;2023-07-13T03:29:30;14.48;;;4.20;;
52029;SDS011;38043;53.224;6.580;2023-07-13T03:31:55;16.92;;;4.38;;
52029;SDS011;38043;53.224;6.580;2023-07-13T03:34:21;17.92;;;4.15;;
52029;SDS011;38043;53.224;6.580;2023-07-13T03:36:47;16.48;;;4.60;;
52029;SDS011;38043;53.224;6.580;2023-07-13T03:39:13;17.25;;;4.38;;
52029;SDS011;38043;53.224;6.580;2023-07-13T03:41:38;14.90;;;3.72;;
52029;SDS011;38043;53.224;6.580;2023-07-13T03:44:04;16.55;;;4.10;;
52029;SDS011;38043;53.224;6.580;2023-07-13T03:46:30;15.90;;;4.07;;
52029;SDS011;38043;53.224;6.580;2023-07-13T03:48:56;14.38;;;3.60;;
52029;SDS011;38043;53.224;6.580;2023-07-13T03:51:22;21.75;;;4.35;;
52029;SDS011;38043;53.224;6.580;2023-07-13T03:53:49;11.55;;;4.25;;
52029;SDS011;38043;53.224;6.580;2023-07-13T03:56:15;12.25;;;3.70;;
52029;SDS011;38043;53.224;6.580;2023-07-13T03:58:44;17.83;;;4.25;;
52029;SDS011;38043;53.224;6.580;2023-07-13T04:01:11;10.73;;;3.53;;
52029;SDS011;38043;53.224;6.580;2023-07-13T04:03:38;17.17;;;4.55;;
52029;SDS011;38043;53.224;6.580;2023-07-13T04:06:07;12.48;;;3.92;;
52029;SDS011;38043;53.224;6.580;2023-07-13T04:08:43;14.02;;;3.90;;
52029;SDS011;38043;53.224;6.580;2023-07-13T04:11:08;21.60;;;4.43;;
52029;SDS011;38043;53.224;6.580;2023-07-13T04:13:34;17.23;;;4.07;;
52029;SDS011;38043;53.224;6.580;2023-07-13T04:16:00;15.35;;;4.55;;
52029;SDS011;38043;53.224;6.580;2023-07-13T04:18:25;13.65;;;3.45;;
52029;SDS011;38043;53.224;6.580;2023-07-13T04:20:51;15.77;;;3.45;;
52029;SDS011;38043;53.224;6.580;2023-07-13T04:23:17;17.90;;;4.00;;
52029;SDS011;38043;53.224;6.580;2023-07-13T04:25:44;13.90;;;3.85;;
52029;SDS011;38043;53.224;6.580;2023-07-13T04:28:10;19.95;;;4.18;;
52029;SDS011;38043;53.224;6.580;2023-07-13T04:30:36;17.70;;;4.60;;
52029;SDS011;38043;53.224;6.580;2023-07-13T04:33:02;16.15;;;4.28;;
52029;SDS011;38043;53.224;6.580;2023-07-13T04:35:27;20.52;;;4.53;;
52029;SDS011;38043;53.224;6.580;2023-07-13T04:37:53;14.30;;;4.13;;
52029;SDS011;38043;53.224;6.580;2023-07-13T04:40:19;25.15;;;4.80;;
52029;SDS011;38043;53.224;6.580;2023-07-13T04:42:45;18.33;;;3.97;;
52029;SDS011;38043;53.224;6.580;2023-07-13T04:45:12;13.95;;;3.80;;
52029;SDS011;38043;53.224;6.580;2023-07-13T04:47:42;12.35;;;4.30;;
52029;SDS011;38043;53.224;6.580;2023-07-13T04:50:08;18.30;;;5.30;;
52029;SDS011;38043;53.224;6.580;2023-07-13T04:52:36;15.68;;;4.20;;
52029;SDS011;38043;53.224;6.580;2023-07-13T04:55:02;18.02;;;4.25;;
52029;SDS011;38043;53.224;6.580;2023-07-13T04:57:28;16.30;;;4.45;;
52029;SDS011;38043;53.224;6.580;2023-07-13T04:59:54;15.20;;;4.15;;
52029;SDS011;38043;53.224;6.580;2023-07-13T05:02:20;12.98;;;4.38;;
52029;SDS011;38043;53.224;6.580;2023-07-13T05:04:47;21.50;;;4.57;;
52029;SDS011;38043;53.224;6.580;2023-07-13T05:07:13;17.45;;;4.05;;
52029;SDS011;38043;53.224;6.580;2023-07-13T05:09:39;17.52;;;4.85;;
52029;SDS011;38043;53.224;6.580;2023-07-13T05:12:05;19.48;;;4.80;;
52029;SDS011;38043;53.224;6.580;2023-07-13T05:14:32;12.67;;;3.90;;
52029;SDS011;38043;53.224;6.580;2023-07-13T05:16:59;19.50;;;4.50;;
52029;SDS011;38043;53.224;6.580;2023-07-13T05:19:25;18.02;;;4.22;;
52029;SDS011;38043;53.224;6.580;2023-07-13T05:21:51;16.10;;;4.30;;
52029;SDS011;38043;53.224;6.580;2023-07-13T05:24:17;19.02;;;4.70;;
52029;SDS011;38043;53.224;6.580;2023-07-13T05:26:43;19.23;;;4.10;;
52029;SDS011;38043;53.224;6.580;2023-07-13T05:31:37;12.55;;;4.22;;
52029;SDS011;38043;53.224;6.580;2023-07-13T05:34:02;15.02;;;3.35;;
52029;SDS011;38043;53.224;6.580;2023-07-13T05:36:28;16.05;;;3.58;;
52029;SDS011;38043;53.224;6.580;2023-07-13T05:38:54;12.60;;;3.53;;
52029;SDS011;38043;53.224;6.580;2023-07-13T05:41:20;14.93;;;3.97;;
52029;SDS011;38043;53.224;6.580;2023-07-13T05:43:45;13.80;;;3.63;;
52029;SDS011;38043;53.224;6.580;2023-07-13T05:46:11;12.68;;;4.07;;
52029;SDS011;38043;53.224;6.580;2023-07-13T05:48:37;17.58;;;4.40;;
52029;SDS011;38043;53.224;6.580;2023-07-13T05:51:02;16.95;;;3.88;;
52029;SDS011;38043;53.224;6.580;2023-07-13T05:53:29;10.35;;;3.80;;
52029;SDS011;38043;53.224;6.580;2023-07-13T05:55:55;14.20;;;3.60;;
52029;SDS011;38043;53.224;6.580;2023-07-13T05:58:21;13.88;;;3.97;;
52029;SDS011;38043;53.224;6.580;2023-07-13T06:00:47;10.50;;;3.30;;
52029;SDS011;38043;53.224;6.580;2023-07-13T06:03:14;16.13;;;3.88;;
52029;SDS011;38043;53.224;6.580;2023-07-13T06:05:40;14.48;;;3.00;;
52029;SDS011;38043;53.224;6.580;2023-07-13T06:08:06;10.60;;;3.25;;
52029;SDS011;38043;53.224;6.580;2023-07-13T06:10:33;22.63;;;3.83;;
52029;SDS011;38043;53.224;6.580;2023-07-13T06:13:00;12.05;;;3.05;;
52029;SDS011;38043;53.224;6.580;2023-07-13T06:15:25;9.85;;;2.58;;
52029;SDS011;38043;53.224;6.580;2023-07-13T06:17:52;17.55;;;3.60;;
52029;SDS011;38043;53.224;6.580;2023-07-13T06:20:18;14.38;;;3.13;;
52029;SDS011;38043;53.224;6.580;2023-07-13T06:22:44;15.25;;;3.75;;
52029;SDS011;38043;53.224;6.580;2023-07-13T06:25:09;13.65;;;3.10;;
52029;SDS011;38043;53.224;6.580;2023-07-13T06:27:35;13.55;;;3.03;;
52029;SDS011;38043;53.224;6.580;2023-07-13T06:30:01;9.50;;;3.30;;
52029;SDS011;38043;53.224;6.580;2023-07-13T06:32:28;8.43;;;2.95;;
52029;SDS011;38043;53.224;6.580;2023-07-13T06:34:54;13.25;;;2.90;;
52029;SDS011;38043;53.224;6.580;2023-07-13T06:37:22;14.02;;;3.22;;
52029;SDS011;38043;53.224;6.580;2023-07-13T06:39:48;13.38;;;3.05;;
52029;SDS011;38043;53.224;6.580;2023-07-13T06:42:15;10.90;;;2.40;;
52029;SDS011;38043;53.224;6.580;2023-07-13T06:44:41;9.30;;;2.72;;
52029;SDS011;38043;53.224;6.580;2023-07-13T06:47:07;8.82;;;3.22;;
52029;SDS011;38043;53.224;6.580;2023-07-13T06:49:33;10.85;;;3.20;;
52029;SDS011;38043;53.224;6.580;2023-07-13T06:51:59;11.10;;;2.78;;
52029;SDS011;38043;53.224;6.580;2023-07-13T06:54:24;10.65;;;3.25;;
52029;SDS011;38043;53.224;6.580;2023-07-13T06:56:50;16.08;;;3.10;;
52029;SDS011;38043;53.224;6.580;2023-07-13T06:59:16;13.48;;;4.63;;
52029;SDS011;38043;53.224;6.580;2023-07-13T07:01:42;13.43;;;3.80;;
52029;SDS011;38043;53.224;6.580;2023-07-13T07:04:07;9.60;;;2.55;;
52029;SDS011;38043;53.224;6.580;2023-07-13T07:06:33;11.00;;;3.38;;
52029;SDS011;38043;53.224;6.580;2023-07-13T07:08:59;10.18;;;2.50;;
52029;SDS011;38043;53.224;6.580;2023-07-13T07:11:25;14.35;;;3.00;;
52029;SDS011;38043;53.224;6.580;2023-07-13T07:13:54;7.65;;;2.22;;
52029;SDS011;38043;53.224;6.580;2023-07-13T07:16:20;11.30;;;2.47;;
52029;SDS011;38043;53.224;6.580;2023-07-13T07:18:47;9.87;;;3.10;;
52029;SDS011;38043;53.224;6.580;2023-07-13T07:21:13;7.38;;;2.30;;
52029;SDS011;38043;53.224;6.580;2023-07-13T07:23:39;12.05;;;2.42;;
52029;SDS011;38043;53.224;6.580;2023-07-13T07:26:06;5.35;;;2.10;;
52029;SDS011;38043;53.224;6.580;2023-07-13T07:28:33;6.68;;;2.17;;
52029;SDS011;38043;53.224;6.580;2023-07-13T07:30:59;8.15;;;2.30;;
52029;SDS011;38043;53.224;6.580;2023-07-13T07:33:25;7.13;;;2.05;;
52029;SDS011;38043;53.224;6.580;2023-07-13T07:35:51;9.95;;;2.22;;
52029;SDS011;38043;53.224;6.580;2023-07-13T07:38:20;12.18;;;2.38;;
52029;SDS011;38043;53.224;6.580;2023-07-13T07:40:46;6.85;;;2.05;;
52029;SDS011;38043;53.224;6.580;2023-07-13T07:43:12;7.68;;;2.35;;
52029;SDS011;38043;53.224;6.580;2023-07-13T07:45:39;8.27;;;2.53;;
52029;SDS011;38043;53.224;6.580;2023-07-13T07:48:05;7.43;;;2.15;;
52029;SDS011;38043;53.224;6.580;2023-07-13T07:50:32;7.40;;;2.03;;
52029;SDS011;38043;53.224;6.580;2023-07-13T07:52:58;8.85;;;2.38;;
52029;SDS011;38043;53.224;6.580;2023-07-13T07:55:24;8.02;;;2.42;;
52029;SDS011;38043;53.224;6.580;2023-07-13T07:57:51;10.10;;;2.28;;
52029;SDS011;38043;53.224;6.580;2023-07-13T08:00:20;10.20;;;2.33;;
52029;SDS011;38043;53.224;6.580;2023-07-13T08:02:46;6.97;;;2.25;;
52029;SDS011;38043;53.224;6.580;2023-07-13T08:05:13;8.48;;;2.35;;
52029;SDS011;38043;53.224;6.580;2023-07-13T08:07:39;11.75;;;2.83;;
52029;SDS011;38043;53.224;6.580;2023-07-13T08:10:08;5.75;;;1.80;;
52029;SDS011;38043;53.224;6.580;2023-07-13T08:12:35;5.93;;;1.90;;
52029;SDS011;38043;53.224;6.580;2023-07-13T08:15:02;5.25;;;2.35;;
52029;SDS011;38043;53.224;6.580;2023-07-13T08:17:28;5.05;;;2.08;;
52029;SDS011;38043;53.224;6.580;2023-07-13T08:19:54;3.88;;;1.60;;
52029;SDS011;38043;53.224;6.580;2023-07-13T08:22:22;10.38;;;1.70;;
52029;SDS011;38043;53.224;6.580;2023-07-13T08:24:50;3.80;;;1.60;;
52029;SDS011;38043;53.224;6.580;2023-07-13T08:27:24;4.47;;;1.80;;
52029;SDS011;38043;53.224;6.580;2023-07-13T08:29:51;4.45;;;2.03;;
52029;SDS011;38043;53.224;6.580;2023-07-13T08:32:17;5.28;;;1.98;;
52029;SDS011;38043;53.224;6.580;2023-07-13T08:34:44;7.95;;;2.22;;
52029;SDS011;38043;53.224;6.580;2023-07-13T08:37:10;4.68;;;2.15;;
52029;SDS011;38043;53.224;6.580;2023-07-13T08:39:37;8.32;;;2.00;;
52029;SDS011;38043;53.224;6.580;2023-07-13T08:42:11;8.82;;;2.45;;
52029;SDS011;38043;53.224;6.580;2023-07-13T08:47:32;6.30;;;2.30;;
52029;SDS011;38043;53.224;6.580;2023-07-13T08:50:03;8.35;;;2.75;;
52029;SDS011;38043;53.224;6.580;2023-07-13T08:52:35;10.93;;;2.70;;
52029;SDS011;38043;53.224;6.580;2023-07-13T08:55:14;9.10;;;2.45;;
52029;SDS011;38043;53.224;6.580;2023-07-13T08:57:44;11.32;;;2.08;;
52029;SDS011;38043;53.224;6.580;2023-07-13T09:00:25;12.18;;;2.92;;
52029;SDS011;38043;53.224;6.580;2023-07-13T09:03:04;5.45;;;2.30;;
52029;SDS011;38043;53.224;6.580;2023-07-13T09:05:40;9.20;;;2.15;;
52029;SDS011;38043;53.224;6.580;2023-07-13T09:13:45;8.90;;;2.83;;
52029;SDS011;38043;53.224;6.580;2023-07-13T09:16:22;4.65;;;2.22;;
52029;SDS011;38043;53.224;6.580;2023-07-13T09:18:53;9.90;;;2.60;;
52029;SDS011;38043;53.224;6.580;2023-07-13T09:24:01;6.82;;;2.20;;
52029;SDS011;38043;53.224;6.580;2023-07-13T09:26:46;7.18;;;2.22;;
52029;SDS011;38043;53.224;6.580;2023-07-13T09:29:23;6.05;;;2.13;;
52029;SDS011;38043;53.224;6.580;2023-07-13T09:31:54;7.63;;;2.28;;
52029;SDS011;38043;53.224;6.580;2023-07-13T09:34:23;5.95;;;2.63;;
52029;SDS011;38043;53.224;6.580;2023-07-13T09:36:50;8.60;;;2.40;;
52029;SDS011;38043;53.224;6.580;2023-07-13T09:39:33;6.93;;;2.13;;
52029;SDS011;38043;53.224;6.580;2023-07-13T09:47:17;10.48;;;2.03;;
52029;SDS011;38043;53.224;6.580;2023-07-13T09:49:45;5.55;;;2.10;;
52029;SDS011;38043;53.224;6.580;2023-07-13T09:52:11;26.33;;;2.85;;
52029;SDS011;38043;53.224;6.580;2023-07-13T09:54:43;9.07;;;2.30;;
52029;SDS011;38043;53.224;6.580;2023-07-13T09:57:15;6.40;;;1.83;;
52029;SDS011;38043;53.224;6.580;2023-07-13T09:59:44;8.52;;;2.30;;
52029;SDS011;38043;53.224;6.580;2023-07-13T10:02:25;5.35;;;2.03;;
52029;SDS011;38043;53.224;6.580;2023-07-13T10:05:00;8.13;;;2.42;;
52029;SDS011;38043;53.224;6.580;2023-07-13T10:07:31;6.10;;;1.80;;
52029;SDS011;38043;53.224;6.580;2023-07-13T10:09:58;7.07;;;1.80;;
52029;SDS011;38043;53.224;6.580;2023-07-13T10:12:29;5.18;;;1.55;;
52029;SDS011;38043;53.224;6.580;2023-07-13T10:15:00;5.40;;;1.60;;
52029;SDS011;38043;53.224;6.580;2023-07-13T10:17:30;5.93;;;1.98;;
52029;SDS011;38043;53.224;6.580;2023-07-13T10:20:04;4.82;;;1.70;;
52029;SDS011;38043;53.224;6.580;2023-07-13T10:25:26;4.45;;;1.38;;
52029;SDS011;38043;53.224;6.580;2023-07-13T10:28:02;3.10;;;1.17;;
52029;SDS011;38043;53.224;6.580;2023-07-13T10:30:35;3.75;;;1.60;;
52029;SDS011;38043;53.224;6.580;2023-07-13T10:33:08;5.43;;;1.90;;
52029;SDS011;38043;53.224;6.580;2023-07-13T10:35:37;10.95;;;1.70;;
52029;SDS011;38043;53.224;6.580;2023-07-13T10:38:11;4.82;;;1.48;;
52029;SDS011;38043;53.224;6.580;2023-07-13T10:40:58;4.20;;;1.60;;
52029;SDS011;38043;53.224;6.580;2023-07-13T10:43:34;7.97;;;1.77;;
52029;SDS011;38043;53.224;6.580;2023-07-13T10:46:04;6.60;;;1.70;;
52029;SDS011;38043;53.224;6.580;2023-07-13T10:48:33;5.18;;;1.50;;
52029;SDS011;38043;53.224;6.580;2023-07-13T10:51:01;4.95;;;1.50;;
52029;SDS011;38043;53.224;6.580;2023-07-13T10:53:31;3.58;;;1.30;;
52029;SDS011;38043;53.224;6.580;2023-07-13T10:58:41;6.50;;;1.40;;
52029;SDS011;38043;53.224;6.580;2023-07-13T11:01:09;12.38;;;1.85;;
52029;SDS011;38043;53.224;6.580;2023-07-13T11:03:37;3.33;;;1.13;;
52029;SDS011;38043;53.224;6.580;2023-07-13T11:11:47;4.22;;;1.60;;
52029;SDS011;38043;53.224;6.580;2023-07-13T11:14:25;4.45;;;1.60;;
52029;SDS011;38043;53.224;6.580;2023-07-13T11:16:52;2.10;;;1.23;;
52029;SDS011;38043;53.224;6.580;2023-07-13T11:25:24;5.93;;;1.88;;
52029;SDS011;38043;53.224;6.580;2023-07-13T11:27:50;5.35;;;1.40;;
52029;SDS011;38043;53.224;6.580;2023-07-13T11:30:25;3.60;;;1.60;;
52029;SDS011;38043;53.224;6.580;2023-07-13T11:35:37;3.83;;;1.42;;
52029;SDS011;38043;53.224;6.580;2023-07-13T11:38:28;5.95;;;1.90;;
52029;SDS011;38043;53.224;6.580;2023-07-13T11:43:41;13.38;;;1.90;;
52029;SDS011;38043;53.224;6.580;2023-07-13T11:46:19;5.35;;;1.90;;
52029;SDS011;38043;53.224;6.580;2023-07-13T11:48:47;6.95;;;1.88;;
52029;SDS011;38043;53.224;6.580;2023-07-13T11:51:17;7.80;;;2.63;;
52029;SDS011;38043;53.224;6.580;2023-07-13T11:53:49;4.15;;;1.65;;
52029;SDS011;38043;53.224;6.580;2023-07-13T11:56:17;7.75;;;1.80;;
52029;SDS011;38043;53.224;6.580;2023-07-13T11:58:43;4.35;;;1.63;;
52029;SDS011;38043;53.224;6.580;2023-07-13T12:01:15;6.78;;;1.73;;
52029;SDS011;38043;53.224;6.580;2023-07-13T12:03:58;9.53;;;2.30;;
52029;SDS011;38043;53.224;6.580;2023-07-13T12:06:30;5.15;;;1.75;;
52029;SDS011;38043;53.224;6.580;2023-07-13T12:09:02;5.78;;;1.45;;
52029;SDS011;38043;53.224;6.580;2023-07-13T12:11:38;5.28;;;1.63;;
52029;SDS011;38043;53.224;6.580;2023-07-13T12:14:17;8.38;;;1.70;;
52029;SDS011;38043;53.224;6.580;2023-07-13T12:16:44;8.27;;;1.90;;
52029;SDS011;38043;53.224;6.580;2023-07-13T12:19:30;5.88;;;1.88;;
52029;SDS011;38043;53.224;6.580;2023-07-13T12:21:57;11.05;;;1.92;;
52029;SDS011;38043;53.224;6.580;2023-07-13T12:26:51;3.10;;;1.38;;
52029;SDS011;38043;53.224;6.580;2023-07-13T12:29:29;9.15;;;1.52;;
52029;SDS011;38043;53.224;6.580;2023-07-13T12:31:56;5.30;;;1.70;;
52029;SDS011;38043;53.224;6.580;2023-07-13T12:34:27;10.13;;;2.10;;
52029;SDS011;38043;53.224;6.580;2023-07-13T12:41:46;3.30;;;1.50;;
52029;SDS011;38043;53.224;6.580;2023-07-13T12:44:15;9.95;;;1.85;;
52029;SDS011;38043;53.224;6.580;2023-07-13T12:46:54;7.57;;;1.70;;
52029;SDS011;38043;53.224;6.580;2023-07-13T12:49:30;5.22;;;2.03;;
52029;SDS011;38043;53.224;6.580;2023-07-13T12:52:01;3.85;;;1.40;;
52029;SDS011;38043;53.224;6.580;2023-07-13T12:54:28;8.07;;;1.52;;
52029;SDS011;38043;53.224;6.580;2023-07-13T12:56:55;5.88;;;1.77;;
52029;SDS011;38043;53.224;6.580;2023-07-13T12:59:27;5.68;;;1.45;;
52029;SDS011;38043;53.224;6.580;2023-07-13T13:01:58;8.60;;;2.25;;
52029;SDS011;38043;53.224;6.580;2023-07-13T13:04:24;5.30;;;1.83;;
52029;SDS011;38043;53.224;6.580;2023-07-13T13:07:00;9.80;;;1.95;;
52029;SDS011;38043;53.224;6.580;2023-07-13T13:09:27;22.25;;;4.32;;
52029;SDS011;38043;53.224;6.580;2023-07-13T13:11:53;4.50;;;1.85;;
52029;SDS011;38043;53.224;6.580;2023-07-13T13:14:18;5.47;;;1.55;;
52029;SDS011;38043;53.224;6.580;2023-07-13T13:16:48;8.30;;;2.38;;
52029;SDS011;38043;53.224;6.580;2023-07-13T13:19:21;6.70;;;1.70;;
52029;SDS011;38043;53.224;6.580;2023-07-13T13:21:50;5.20;;;1.80;;
52029;SDS011;38043;53.224;6.580;2023-07-13T13:24:19;5.78;;;1.98;;
52029;SDS011;38043;53.224;6.580;2023-07-13T13:26:47;5.10;;;2.00;;
52029;SDS011;38043;53.224;6.580;2023-07-13T13:29:19;5.25;;;1.80;;
52029;SDS011;38043;53.224;6.580;2023-07-13T13:31:49;14.70;;;1.98;;
52029;SDS011;38043;53.224;6.580;2023-07-13T13:34:15;8.40;;;1.70;;
52029;SDS011;38043;53.224;6.580;2023-07-13T13:36:45;5.38;;;1.83;;
52029;SDS011;38043;53.224;6.580;2023-07-13T13:41:44;7.40;;;2.10;;
52029;SDS011;38043;53.224;6.580;2023-07-13T13:44:10;5.97;;;2.05;;
52029;SDS011;38043;53.224;6.580;2023-07-13T13:46:35;7.05;;;2.17;;
52029;SDS011;38043;53.224;6.580;2023-07-13T13:49:01;6.95;;;1.90;;
52029;SDS011;38043;53.224;6.580;2023-07-13T13:51:27;5.93;;;1.85;;
52029;SDS011;38043;53.224;6.580;2023-07-13T13:53:54;4.55;;;1.77;;
52029;SDS011;38043;53.224;6.580;2023-07-13T13:56:20;5.35;;;1.90;;
52029;SDS011;38043;53.224;6.580;2023-07-13T13:58:46;3.70;;;1.73;;
52029;SDS011;38043;53.224;6.580;2023-07-13T14:01:21;6.93;;;2.10;;
52029;SDS011;38043;53.224;6.580;2023-07-13T14:03:49;6.72;;;2.25;;
52029;SDS011;38043;53.224;6.580;2023-07-13T14:06:16;5.50;;;1.90;;
52029;SDS011;38043;53.224;6.580;2023-07-13T14:08:42;9.88;;;2.13;;
52029;SDS011;38043;53.224;6.580;2023-07-13T14:11:13;5.05;;;1.77;;
52029;SDS011;38043;53.224;6.580;2023-07-13T14:13:48;7.85;;;2.05;;
52029;SDS011;38043;53.224;6.580;2023-07-13T14:16:20;6.63;;;2.10;;
52029;SDS011;38043;53.224;6.580;2023-07-13T14:21:15;7.65;;;2.33;;
52029;SDS011;38043;53.224;6.580;2023-07-13T14:23:45;6.50;;;1.58;;
52029;SDS011;38043;53.224;6.580;2023-07-13T14:26:12;6.68;;;1.60;;
52029;SDS011;38043;53.224;6.580;2023-07-13T14:28:48;5.20;;;1.73;;
52029;SDS011;38043;53.224;6.580;2023-07-13T14:31:16;7.18;;;1.60;;
52029;SDS011;38043;53.224;6.580;2023-07-13T14:36:19;5.60;;;1.65;;
52029;SDS011;38043;53.224;6.580;2023-07-13T14:38:52;6.28;;;1.90;;
52029;SDS011;38043;53.224;6.580;2023-07-13T14:41:18;3.45;;;1.60;;
52029;SDS011;38043;53.224;6.580;2023-07-13T14:43:45;4.00;;;1.67;;
52029;SDS011;38043;53.224;6.580;2023-07-13T14:46:30;4.47;;;1.90;;
52029;SDS011;38043;53.224;6.580;2023-07-13T14:49:05;6.43;;;1.90;;
52029;SDS011;38043;53.224;6.580;2023-07-13T14:51:37;5.40;;;2.03;;
52029;SDS011;38043;53.224;6.580;2023-07-13T14:54:03;6.90;;;1.92;;
52029;SDS011;38043;53.224;6.580;2023-07-13T14:56:30;6.40;;;2.10;;
52029;SDS011;38043;53.224;6.580;2023-07-13T14:58:57;7.22;;;1.90;;
52029;SDS011;38043;53.224;6.580;2023-07-13T15:01:22;5.15;;;1.70;;
52029;SDS011;38043;53.224;6.580;2023-07-13T15:03:50;8.75;;;2.00;;
52029;SDS011;38043;53.224;6.580;2023-07-13T15:06:17;6.80;;;1.98;;
52029;SDS011;38043;53.224;6.580;2023-07-13T15:08:44;7.13;;;1.95;;
52029;SDS011;38043;53.224;6.580;2023-07-13T15:11:13;6.88;;;2.08;;
52029;SDS011;38043;53.224;6.580;2023-07-13T15:13:39;9.13;;;2.03;;
52029;SDS011;38043;53.224;6.580;2023-07-13T15:18:49;6.85;;;2.60;;
52029;SDS011;38043;53.224;6.580;2023-07-13T15:23:46;6.80;;;2.20;;
52029;SDS011;38043;53.224;6.580;2023-07-13T15:26:12;9.38;;;2.08;;
52029;SDS011;38043;53.224;6.580;2023-07-13T15:28:43;8.23;;;2.10;;
52029;SDS011;38043;53.224;6.580;2023-07-13T15:31:43;6.47;;;2.95;;
52029;SDS011;38043;53.224;6.580;2023-07-13T15:34:04;6.43;;;2.05;;
52029;SDS011;38043;53.224;6.580;2023-07-13T15:36:39;6.65;;;1.88;;
52029;SDS011;38043;53.224;6.580;2023-07-13T15:39:05;8.27;;;2.10;;
52029;SDS011;38043;53.224;6.580;2023-07-13T15:41:31;7.35;;;2.20;;
52029;SDS011;38043;53.224;6.580;2023-07-13T15:43:58;7.78;;;2.38;;
52029;SDS011;38043;53.224;6.580;2023-07-13T15:48:52;9.07;;;2.17;;
52029;SDS011;38043;53.224;6.580;2023-07-13T15:51:30;11.40;;;2.42;;
52029;SDS011;38043;53.224;6.580;2023-07-13T15:54:00;4.40;;;1.88;;